sensor_id;sensor_type;location;lat;lon;timestamp;P1;durP1;ratioP1;P2;durP2;ratioP2
81396;SDS011;70852;49.908;8.126;2023-09-18T00:02:14;7.13;;;3.20;;
81396;SDS011;70852;49.908;8.126;2023-09-18T00:04:39;5.78;;;3.28;;
81396;SDS011;70852;49.908;8.126;2023-09-18T00:07:07;7.63;;;3.50;;
81396;SDS011;70852;49.908;8.126;2023-09-18T00:09:32;8.45;;;3.60;;
81396;SDS011;70852;49.908;8.126;2023-09-18T00:11:58;9.27;;;3.45;;
81396;SDS011;70852;49.908;8.126;2023-09-18T00:14:23;9.32;;;3.30;;
81396;SDS011;70852;49.908;8.126;2023-09-18T00:16:53;8.07;;;3.42;;
81396;SDS011;70852;49.908;8.126;2023-09-18T00:19:24;9.45;;;3.92;;
81396;SDS011;70852;49.908;8.126;2023-09-18T00:21:52;9.48;;;3.70;;
81396;SDS011;70852;49.908;8.126;2023-09-18T00:24:21;8.52;;;3.65;;
81396;SDS011;70852;49.908;8.126;2023-09-18T00:26:50;4.82;;;2.97;;
81396;SDS011;70852;49.908;8.126;2023-09-18T00:29:17;6.57;;;3.08;;
81396;SDS011;70852;49.908;8.126;2023-09-18T00:31:46;7.95;;;3.67;;
81396;SDS011;70852;49.908;8.126;2023-09-18T00:34:11;4.97;;;3.08;;
81396;SDS011;70852;49.908;8.126;2023-09-18T00:36:39;7.07;;;3.15;;
81396;SDS011;70852;49.908;8.126;2023-09-18T00:39:06;7.82;;;3.60;;
81396;SDS011;70852;49.908;8.126;2023-09-18T00:41:32;8.43;;;3.38;;
81396;SDS011;70852;49.908;8.126;2023-09-18T00:44:00;6.38;;;3.33;;
81396;SDS011;70852;49.908;8.126;2023-09-18T00:46:25;10.10;;;3.75;;
81396;SDS011;70852;49.908;8.126;2023-09-18T00:48:51;7.53;;;3.70;;
81396;SDS011;70852;49.908;8.126;2023-09-18T00:51:21;6.00;;;3.22;;
81396;SDS011;70852;49.908;8.126;2023-09-18T00:53:48;6.30;;;3.42;;
81396;SDS011;70852;49.908;8.126;2023-09-18T00:56:17;9.00;;;3.47;;
81396;SDS011;70852;49.908;8.126;2023-09-18T00:58:45;10.60;;;3.85;;
81396;SDS011;70852;49.908;8.126;2023-09-18T01:01:13;7.18;;;3.40;;
81396;SDS011;70852;49.908;8.126;2023-09-18T01:03:47;8.32;;;3.55;;
81396;SDS011;70852;49.908;8.126;2023-09-18T01:06:14;7.85;;;3.63;;
81396;SDS011;70852;49.908;8.126;2023-09-18T01:08:43;7.10;;;3.67;;
81396;SDS011;70852;49.908;8.126;2023-09-18T01:11:26;8.25;;;3.63;;
81396;SDS011;70852;49.908;8.126;2023-09-18T01:14:25;5.40;;;3.25;;
81396;SDS011;70852;49.908;8.126;2023-09-18T01:16:56;8.52;;;3.70;;
81396;SDS011;70852;49.908;8.126;2023-09-18T01:19:45;8.90;;;3.58;;
81396;SDS011;70852;49.908;8.126;2023-09-18T01:22:15;7.95;;;3.70;;
81396;SDS011;70852;49.908;8.126;2023-09-18T01:24:42;11.45;;;3.72;;
81396;SDS011;70852;49.908;8.126;2023-09-18T01:27:10;7.55;;;4.00;;
81396;SDS011;70852;49.908;8.126;2023-09-18T01:29:38;7.95;;;4.07;;
81396;SDS011;70852;49.908;8.126;2023-09-18T01:32:08;7.80;;;3.75;;
81396;SDS011;70852;49.908;8.126;2023-09-18T01:34:37;9.02;;;3.70;;
81396;SDS011;70852;49.908;8.126;2023-09-18T01:37:13;7.97;;;3.97;;
81396;SDS011;70852;49.908;8.126;2023-09-18T01:39:42;11.43;;;5.00;;
81396;SDS011;70852;49.908;8.126;2023-09-18T01:42:10;10.20;;;3.80;;
81396;SDS011;70852;49.908;8.126;2023-09-18T01:44:35;11.65;;;4.47;;
81396;SDS011;70852;49.908;8.126;2023-09-18T01:47:06;9.43;;;4.18;;
81396;SDS011;70852;49.908;8.126;2023-09-18T01:49:38;15.27;;;5.18;;
81396;SDS011;70852;49.908;8.126;2023-09-18T01:52:07;9.57;;;4.72;;
81396;SDS011;70852;49.908;8.126;2023-09-18T01:54:34;7.85;;;4.60;;
81396;SDS011;70852;49.908;8.126;2023-09-18T01:57:00;7.95;;;4.60;;
81396;SDS011;70852;49.908;8.126;2023-09-18T01:59:29;9.90;;;4.32;;
81396;SDS011;70852;49.908;8.126;2023-09-18T02:01:57;6.85;;;4.28;;
81396;SDS011;70852;49.908;8.126;2023-09-18T02:04:23;11.52;;;4.57;;
81396;SDS011;70852;49.908;8.126;2023-09-18T02:06:49;9.30;;;3.97;;
81396;SDS011;70852;49.908;8.126;2023-09-18T02:09:15;9.27;;;4.70;;
81396;SDS011;70852;49.908;8.126;2023-09-18T02:11:43;8.80;;;4.28;;
81396;SDS011;70852;49.908;8.126;2023-09-18T02:14:13;7.38;;;3.92;;
81396;SDS011;70852;49.908;8.126;2023-09-18T02:16:42;7.07;;;4.15;;
81396;SDS011;70852;49.908;8.126;2023-09-18T02:19:13;7.32;;;3.90;;
81396;SDS011;70852;49.908;8.126;2023-09-18T02:21:39;7.32;;;4.13;;
81396;SDS011;70852;49.908;8.126;2023-09-18T02:24:07;7.63;;;4.13;;
81396;SDS011;70852;49.908;8.126;2023-09-18T02:26:34;10.43;;;4.22;;
81396;SDS011;70852;49.908;8.126;2023-09-18T02:29:07;10.77;;;4.40;;
81396;SDS011;70852;49.908;8.126;2023-09-18T02:34:04;7.50;;;4.13;;
81396;SDS011;70852;49.908;8.126;2023-09-18T02:36:32;8.68;;;4.43;;
81396;SDS011;70852;49.908;8.126;2023-09-18T02:38:58;8.88;;;4.13;;
81396;SDS011;70852;49.908;8.126;2023-09-18T02:41:27;9.35;;;4.82;;
81396;SDS011;70852;49.908;8.126;2023-09-18T02:43:58;8.25;;;4.43;;
81396;SDS011;70852;49.908;8.126;2023-09-18T02:46:25;9.48;;;4.50;;
81396;SDS011;70852;49.908;8.126;2023-09-18T02:48:54;8.60;;;4.25;;
81396;SDS011;70852;49.908;8.126;2023-09-18T02:51:21;8.32;;;3.85;;
81396;SDS011;70852;49.908;8.126;2023-09-18T02:53:49;7.63;;;4.10;;
81396;SDS011;70852;49.908;8.126;2023-09-18T02:56:14;10.77;;;4.50;;
81396;SDS011;70852;49.908;8.126;2023-09-18T02:58:42;8.35;;;3.97;;
81396;SDS011;70852;49.908;8.126;2023-09-18T03:01:09;12.43;;;4.43;;
81396;SDS011;70852;49.908;8.126;2023-09-18T03:03:36;10.18;;;4.50;;
81396;SDS011;70852;49.908;8.126;2023-09-18T03:06:02;8.77;;;4.85;;
81396;SDS011;70852;49.908;8.126;2023-09-18T03:08:29;6.93;;;4.10;;
81396;SDS011;70852;49.908;8.126;2023-09-18T03:10:54;7.38;;;4.28;;
81396;SDS011;70852;49.908;8.126;2023-09-18T03:13:19;8.18;;;4.13;;
81396;SDS011;70852;49.908;8.126;2023-09-18T03:15:45;8.43;;;3.83;;
81396;SDS011;70852;49.908;8.126;2023-09-18T03:18:15;7.93;;;4.38;;
81396;SDS011;70852;49.908;8.126;2023-09-18T03:20:43;9.05;;;4.07;;
81396;SDS011;70852;49.908;8.126;2023-09-18T03:23:11;9.82;;;4.43;;
81396;SDS011;70852;49.908;8.126;2023-09-18T03:25:38;9.75;;;3.95;;
81396;SDS011;70852;49.908;8.126;2023-09-18T03:28:03;7.85;;;3.95;;
81396;SDS011;70852;49.908;8.126;2023-09-18T03:30:29;7.88;;;4.10;;
81396;SDS011;70852;49.908;8.126;2023-09-18T03:32:57;6.32;;;3.35;;
81396;SDS011;70852;49.908;8.126;2023-09-18T03:35:22;7.68;;;3.80;;
81396;SDS011;70852;49.908;8.126;2023-09-18T03:37:48;7.05;;;3.85;;
81396;SDS011;70852;49.908;8.126;2023-09-18T03:40:15;9.13;;;4.30;;
81396;SDS011;70852;49.908;8.126;2023-09-18T03:42:46;8.68;;;4.00;;
81396;SDS011;70852;49.908;8.126;2023-09-18T03:45:12;5.90;;;3.88;;
81396;SDS011;70852;49.908;8.126;2023-09-18T03:47:38;7.50;;;3.85;;
81396;SDS011;70852;49.908;8.126;2023-09-18T03:50:07;6.63;;;3.85;;
81396;SDS011;70852;49.908;8.126;2023-09-18T03:52:36;8.68;;;3.42;;
81396;SDS011;70852;49.908;8.126;2023-09-18T03:55:03;6.60;;;3.70;;
81396;SDS011;70852;49.908;8.126;2023-09-18T03:57:31;7.18;;;3.47;;
81396;SDS011;70852;49.908;8.126;2023-09-18T04:00:00;9.18;;;3.60;;
81396;SDS011;70852;49.908;8.126;2023-09-18T04:02:30;7.70;;;3.55;;
81396;SDS011;70852;49.908;8.126;2023-09-18T04:04:57;9.07;;;3.65;;
81396;SDS011;70852;49.908;8.126;2023-09-18T04:07:23;7.15;;;3.60;;
81396;SDS011;70852;49.908;8.126;2023-09-18T04:09:50;6.35;;;3.55;;
81396;SDS011;70852;49.908;8.126;2023-09-18T04:12:16;6.97;;;3.90;;
81396;SDS011;70852;49.908;8.126;2023-09-18T04:14:41;8.25;;;3.53;;
81396;SDS011;70852;49.908;8.126;2023-09-18T04:17:06;7.13;;;3.85;;
81396;SDS011;70852;49.908;8.126;2023-09-18T04:19:32;8.85;;;3.85;;
81396;SDS011;70852;49.908;8.126;2023-09-18T04:21:57;9.52;;;4.35;;
81396;SDS011;70852;49.908;8.126;2023-09-18T04:24:29;8.38;;;4.32;;
81396;SDS011;70852;49.908;8.126;2023-09-18T04:26:57;6.75;;;3.78;;
81396;SDS011;70852;49.908;8.126;2023-09-18T04:29:23;6.60;;;3.53;;
81396;SDS011;70852;49.908;8.126;2023-09-18T04:31:48;8.15;;;4.00;;
81396;SDS011;70852;49.908;8.126;2023-09-18T04:34:13;8.25;;;3.40;;
81396;SDS011;70852;49.908;8.126;2023-09-18T04:36:43;7.93;;;3.60;;
81396;SDS011;70852;49.908;8.126;2023-09-18T04:39:09;7.80;;;3.58;;
81396;SDS011;70852;49.908;8.126;2023-09-18T04:41:34;10.50;;;3.80;;
81396;SDS011;70852;49.908;8.126;2023-09-18T04:44:00;6.25;;;3.22;;
81396;SDS011;70852;49.908;8.126;2023-09-18T04:46:30;5.53;;;2.95;;
81396;SDS011;70852;49.908;8.126;2023-09-18T04:48:58;5.93;;;3.40;;
81396;SDS011;70852;49.908;8.126;2023-09-18T04:51:25;8.00;;;3.13;;
81396;SDS011;70852;49.908;8.126;2023-09-18T04:53:51;5.45;;;2.97;;
81396;SDS011;70852;49.908;8.126;2023-09-18T04:56:17;7.68;;;3.10;;
81396;SDS011;70852;49.908;8.126;2023-09-18T04:58:45;7.78;;;2.97;;
81396;SDS011;70852;49.908;8.126;2023-09-18T05:01:10;6.95;;;3.10;;
81396;SDS011;70852;49.908;8.126;2023-09-18T05:03:36;6.90;;;2.83;;
81396;SDS011;70852;49.908;8.126;2023-09-18T05:06:04;8.10;;;2.63;;
81396;SDS011;70852;49.908;8.126;2023-09-18T05:08:32;9.35;;;2.65;;
81396;SDS011;70852;49.908;8.126;2023-09-18T05:11:01;9.50;;;2.90;;
81396;SDS011;70852;49.908;8.126;2023-09-18T05:13:26;9.43;;;2.88;;
81396;SDS011;70852;49.908;8.126;2023-09-18T05:15:52;9.95;;;2.95;;
81396;SDS011;70852;49.908;8.126;2023-09-18T05:18:19;7.10;;;3.40;;
81396;SDS011;70852;49.908;8.126;2023-09-18T05:20:45;7.93;;;3.42;;
81396;SDS011;70852;49.908;8.126;2023-09-18T05:23:15;9.90;;;3.22;;
81396;SDS011;70852;49.908;8.126;2023-09-18T05:25:43;8.60;;;3.08;;
81396;SDS011;70852;49.908;8.126;2023-09-18T05:28:11;5.57;;;3.00;;
81396;SDS011;70852;49.908;8.126;2023-09-18T05:30:36;6.90;;;2.80;;
81396;SDS011;70852;49.908;8.126;2023-09-18T05:33:05;8.57;;;2.60;;
81396;SDS011;70852;49.908;8.126;2023-09-18T05:37:57;9.15;;;2.53;;
81396;SDS011;70852;49.908;8.126;2023-09-18T05:40:26;7.18;;;2.78;;
81396;SDS011;70852;49.908;8.126;2023-09-18T05:42:57;7.70;;;2.35;;
81396;SDS011;70852;49.908;8.126;2023-09-18T05:45:25;5.18;;;1.92;;
81396;SDS011;70852;49.908;8.126;2023-09-18T05:47:55;9.63;;;2.78;;
81396;SDS011;70852;49.908;8.126;2023-09-18T05:50:28;8.00;;;2.50;;
81396;SDS011;70852;49.908;8.126;2023-09-18T05:52:57;13.25;;;2.50;;
81396;SDS011;70852;49.908;8.126;2023-09-18T05:55:29;6.97;;;2.35;;
81396;SDS011;70852;49.908;8.126;2023-09-18T05:57:57;6.50;;;2.33;;
81396;SDS011;70852;49.908;8.126;2023-09-18T06:00:23;11.25;;;3.10;;
81396;SDS011;70852;49.908;8.126;2023-09-18T06:02:55;7.63;;;2.03;;
81396;SDS011;70852;49.908;8.126;2023-09-18T06:05:24;10.35;;;2.58;;
81396;SDS011;70852;49.908;8.126;2023-09-18T06:07:52;8.18;;;2.40;;
81396;SDS011;70852;49.908;8.126;2023-09-18T06:10:22;6.30;;;2.10;;
81396;SDS011;70852;49.908;8.126;2023-09-18T06:12:47;8.30;;;2.50;;
81396;SDS011;70852;49.908;8.126;2023-09-18T06:15:13;7.95;;;2.20;;
81396;SDS011;70852;49.908;8.126;2023-09-18T06:17:41;7.68;;;2.55;;
81396;SDS011;70852;49.908;8.126;2023-09-18T06:20:11;5.70;;;2.40;;
81396;SDS011;70852;49.908;8.126;2023-09-18T06:22:40;5.82;;;2.25;;
81396;SDS011;70852;49.908;8.126;2023-09-18T06:25:08;11.18;;;2.33;;
81396;SDS011;70852;49.908;8.126;2023-09-18T06:27:40;9.25;;;2.45;;
81396;SDS011;70852;49.908;8.126;2023-09-18T06:30:05;6.88;;;2.00;;
81396;SDS011;70852;49.908;8.126;2023-09-18T06:32:31;11.95;;;2.15;;
81396;SDS011;70852;49.908;8.126;2023-09-18T06:35:02;7.43;;;2.10;;
81396;SDS011;70852;49.908;8.126;2023-09-18T06:37:32;7.75;;;2.10;;
81396;SDS011;70852;49.908;8.126;2023-09-18T06:39:59;7.10;;;2.00;;
81396;SDS011;70852;49.908;8.126;2023-09-18T06:42:31;7.60;;;2.67;;
81396;SDS011;70852;49.908;8.126;2023-09-18T06:44:57;9.23;;;2.20;;
81396;SDS011;70852;49.908;8.126;2023-09-18T06:47:26;10.00;;;2.30;;
81396;SDS011;70852;49.908;8.126;2023-09-18T06:49:56;12.05;;;2.33;;
81396;SDS011;70852;49.908;8.126;2023-09-18T06:52:26;5.47;;;1.85;;
81396;SDS011;70852;49.908;8.126;2023-09-18T06:54:56;5.78;;;2.00;;
81396;SDS011;70852;49.908;8.126;2023-09-18T06:57:23;9.88;;;1.88;;
81396;SDS011;70852;49.908;8.126;2023-09-18T06:59:51;5.53;;;2.03;;
81396;SDS011;70852;49.908;8.126;2023-09-18T07:02:19;6.32;;;1.90;;
81396;SDS011;70852;49.908;8.126;2023-09-18T07:04:46;6.22;;;1.98;;
81396;SDS011;70852;49.908;8.126;2023-09-18T07:07:12;7.28;;;2.20;;
81396;SDS011;70852;49.908;8.126;2023-09-18T07:09:38;8.30;;;2.00;;
81396;SDS011;70852;49.908;8.126;2023-09-18T07:12:03;7.35;;;2.33;;
81396;SDS011;70852;49.908;8.126;2023-09-18T07:14:29;7.57;;;2.20;;
81396;SDS011;70852;49.908;8.126;2023-09-18T07:16:56;7.35;;;2.30;;
81396;SDS011;70852;49.908;8.126;2023-09-18T07:19:22;9.05;;;2.30;;
81396;SDS011;70852;49.908;8.126;2023-09-18T07:21:51;6.30;;;2.33;;
81396;SDS011;70852;49.908;8.126;2023-09-18T07:24:16;9.90;;;2.10;;
81396;SDS011;70852;49.908;8.126;2023-09-18T07:26:43;8.10;;;1.83;;
81396;SDS011;70852;49.908;8.126;2023-09-18T07:29:14;6.70;;;1.95;;
81396;SDS011;70852;49.908;8.126;2023-09-18T07:31:43;7.47;;;2.00;;
81396;SDS011;70852;49.908;8.126;2023-09-18T07:34:11;10.18;;;2.33;;
81396;SDS011;70852;49.908;8.126;2023-09-18T07:36:41;7.00;;;1.77;;
81396;SDS011;70852;49.908;8.126;2023-09-18T07:39:06;7.32;;;1.95;;
81396;SDS011;70852;49.908;8.126;2023-09-18T07:41:32;8.85;;;2.17;;
81396;SDS011;70852;49.908;8.126;2023-09-18T07:43:57;4.60;;;1.58;;
81396;SDS011;70852;49.908;8.126;2023-09-18T07:46:24;6.97;;;1.52;;
81396;SDS011;70852;49.908;8.126;2023-09-18T07:48:49;7.45;;;2.03;;
81396;SDS011;70852;49.908;8.126;2023-09-18T07:51:15;4.95;;;1.65;;
81396;SDS011;70852;49.908;8.126;2023-09-18T07:53:43;8.25;;;2.00;;
81396;SDS011;70852;49.908;8.126;2023-09-18T07:56:10;7.00;;;1.88;;
81396;SDS011;70852;49.908;8.126;2023-09-18T07:58:38;8.20;;;1.88;;
81396;SDS011;70852;49.908;8.126;2023-09-18T08:01:04;8.77;;;2.00;;
81396;SDS011;70852;49.908;8.126;2023-09-18T08:03:30;8.18;;;1.60;;
81396;SDS011;70852;49.908;8.126;2023-09-18T08:05:59;6.07;;;1.80;;
81396;SDS011;70852;49.908;8.126;2023-09-18T08:08:26;7.70;;;1.80;;
81396;SDS011;70852;49.908;8.126;2023-09-18T08:10:52;9.20;;;2.08;;
81396;SDS011;70852;49.908;8.126;2023-09-18T08:13:18;7.18;;;1.67;;
81396;SDS011;70852;49.908;8.126;2023-09-18T08:15:44;7.25;;;1.85;;
81396;SDS011;70852;49.908;8.126;2023-09-18T08:18:13;12.15;;;1.80;;
81396;SDS011;70852;49.908;8.126;2023-09-18T08:20:41;7.68;;;1.70;;
81396;SDS011;70852;49.908;8.126;2023-09-18T08:23:10;8.57;;;1.40;;
81396;SDS011;70852;49.908;8.126;2023-09-18T08:25:38;4.50;;;1.80;;
81396;SDS011;70852;49.908;8.126;2023-09-18T08:30:33;8.90;;;2.05;;
81396;SDS011;70852;49.908;8.126;2023-09-18T08:33:05;5.32;;;1.15;;
81396;SDS011;70852;49.908;8.126;2023-09-18T08:35:30;5.55;;;1.30;;
81396;SDS011;70852;49.908;8.126;2023-09-18T08:37:57;4.68;;;1.30;;
81396;SDS011;70852;49.908;8.126;2023-09-18T08:40:22;5.00;;;1.50;;
81396;SDS011;70852;49.908;8.126;2023-09-18T08:42:51;5.43;;;1.42;;
81396;SDS011;70852;49.908;8.126;2023-09-18T08:45:31;3.58;;;1.48;;
81396;SDS011;70852;49.908;8.126;2023-09-18T08:47:59;4.13;;;1.38;;
81396;SDS011;70852;49.908;8.126;2023-09-18T08:50:26;5.70;;;1.10;;
81396;SDS011;70852;49.908;8.126;2023-09-18T08:52:57;3.95;;;1.10;;
81396;SDS011;70852;49.908;8.126;2023-09-18T08:55:23;6.38;;;1.08;;
81396;SDS011;70852;49.908;8.126;2023-09-18T08:57:49;4.55;;;1.08;;
81396;SDS011;70852;49.908;8.126;2023-09-18T09:00:18;5.22;;;1.10;;
81396;SDS011;70852;49.908;8.126;2023-09-18T09:02:44;2.95;;;1.20;;
81396;SDS011;70852;49.908;8.126;2023-09-18T09:05:10;4.80;;;1.10;;
81396;SDS011;70852;49.908;8.126;2023-09-18T09:07:36;3.95;;;1.02;;
81396;SDS011;70852;49.908;8.126;2023-09-18T09:10:04;3.63;;;1.15;;
81396;SDS011;70852;49.908;8.126;2023-09-18T09:15:19;4.25;;;1.10;;
81396;SDS011;70852;49.908;8.126;2023-09-18T09:17:51;4.30;;;0.90;;
81396;SDS011;70852;49.908;8.126;2023-09-18T09:20:26;4.25;;;1.00;;
81396;SDS011;70852;49.908;8.126;2023-09-18T09:22:59;3.05;;;1.00;;
81396;SDS011;70852;49.908;8.126;2023-09-18T09:25:29;4.15;;;0.90;;
81396;SDS011;70852;49.908;8.126;2023-09-18T09:27:59;2.83;;;0.90;;
81396;SDS011;70852;49.908;8.126;2023-09-18T09:30:27;4.43;;;0.90;;
81396;SDS011;70852;49.908;8.126;2023-09-18T09:32:54;4.00;;;0.82;;
81396;SDS011;70852;49.908;8.126;2023-09-18T09:37:49;2.17;;;0.60;;
81396;SDS011;70852;49.908;8.126;2023-09-18T09:40:21;4.13;;;0.90;;
81396;SDS011;70852;49.908;8.126;2023-09-18T09:42:47;3.17;;;1.00;;
81396;SDS011;70852;49.908;8.126;2023-09-18T09:45:16;2.47;;;1.00;;
81396;SDS011;70852;49.908;8.126;2023-09-18T09:47:42;3.70;;;1.17;;
81396;SDS011;70852;49.908;8.126;2023-09-18T09:50:09;2.90;;;0.90;;
81396;SDS011;70852;49.908;8.126;2023-09-18T09:52:44;3.42;;;0.90;;
81396;SDS011;70852;49.908;8.126;2023-09-18T09:55:27;2.75;;;0.73;;
81396;SDS011;70852;49.908;8.126;2023-09-18T09:57:59;2.78;;;0.80;;
81396;SDS011;70852;49.908;8.126;2023-09-18T10:03:06;4.90;;;1.00;;
81396;SDS011;70852;49.908;8.126;2023-09-18T10:05:38;2.92;;;0.90;;
81396;SDS011;70852;49.908;8.126;2023-09-18T10:08:17;3.42;;;1.00;;
81396;SDS011;70852;49.908;8.126;2023-09-18T10:10:47;5.53;;;1.02;;
81396;SDS011;70852;49.908;8.126;2023-09-18T10:15:46;2.65;;;0.90;;
81396;SDS011;70852;49.908;8.126;2023-09-18T10:20:45;2.80;;;0.80;;
81396;SDS011;70852;49.908;8.126;2023-09-18T10:25:50;3.45;;;1.42;;
81396;SDS011;70852;49.908;8.126;2023-09-18T10:28:20;3.47;;;1.10;;
81396;SDS011;70852;49.908;8.126;2023-09-18T10:30:51;3.50;;;1.00;;
81396;SDS011;70852;49.908;8.126;2023-09-18T10:33:19;3.42;;;0.95;;
81396;SDS011;70852;49.908;8.126;2023-09-18T10:35:46;3.25;;;0.98;;
81396;SDS011;70852;49.908;8.126;2023-09-18T10:38:13;3.50;;;1.55;;
81396;SDS011;70852;49.908;8.126;2023-09-18T10:40:41;3.10;;;1.00;;
81396;SDS011;70852;49.908;8.126;2023-09-18T10:43:13;3.67;;;1.00;;
81396;SDS011;70852;49.908;8.126;2023-09-18T10:45:40;2.42;;;1.10;;
81396;SDS011;70852;49.908;8.126;2023-09-18T10:48:06;1.52;;;0.77;;
81396;SDS011;70852;49.908;8.126;2023-09-18T10:50:38;2.33;;;0.90;;
81396;SDS011;70852;49.908;8.126;2023-09-18T10:53:05;5.28;;;1.60;;
81396;SDS011;70852;49.908;8.126;2023-09-18T10:55:33;5.05;;;1.05;;
81396;SDS011;70852;49.908;8.126;2023-09-18T10:58:04;2.88;;;0.82;;
81396;SDS011;70852;49.908;8.126;2023-09-18T11:00:29;2.13;;;0.98;;
81396;SDS011;70852;49.908;8.126;2023-09-18T11:03:14;3.00;;;1.00;;
81396;SDS011;70852;49.908;8.126;2023-09-18T11:05:45;3.97;;;0.95;;
81396;SDS011;70852;49.908;8.126;2023-09-18T11:08:29;2.72;;;0.90;;
81396;SDS011;70852;49.908;8.126;2023-09-18T11:13:29;4.72;;;1.00;;
81396;SDS011;70852;49.908;8.126;2023-09-18T11:21:26;3.22;;;0.98;;
81396;SDS011;70852;49.908;8.126;2023-09-18T11:24:06;2.78;;;0.90;;
81396;SDS011;70852;49.908;8.126;2023-09-18T11:26:37;1.90;;;0.70;;
81396;SDS011;70852;49.908;8.126;2023-09-18T11:29:10;2.83;;;0.90;;
81396;SDS011;70852;49.908;8.126;2023-09-18T11:31:54;3.22;;;1.00;;
81396;SDS011;70852;49.908;8.126;2023-09-18T11:36:46;3.78;;;1.10;;
81396;SDS011;70852;49.908;8.126;2023-09-18T11:39:12;3.58;;;1.20;;
81396;SDS011;70852;49.908;8.126;2023-09-18T11:41:38;3.20;;;1.00;;
81396;SDS011;70852;49.908;8.126;2023-09-18T11:46:46;3.75;;;1.02;;
81396;SDS011;70852;49.908;8.126;2023-09-18T11:51:39;2.97;;;1.10;;
81396;SDS011;70852;49.908;8.126;2023-09-18T11:54:05;4.45;;;1.00;;
81396;SDS011;70852;49.908;8.126;2023-09-18T11:56:35;3.60;;;1.30;;
81396;SDS011;70852;49.908;8.126;2023-09-18T11:59:00;4.10;;;1.00;;
81396;SDS011;70852;49.908;8.126;2023-09-18T12:01:30;2.20;;;0.88;;
81396;SDS011;70852;49.908;8.126;2023-09-18T12:04:02;1.98;;;0.85;;
81396;SDS011;70852;49.908;8.126;2023-09-18T12:06:34;4.53;;;1.20;;
81396;SDS011;70852;49.908;8.126;2023-09-18T12:09:03;6.13;;;1.10;;
81396;SDS011;70852;49.908;8.126;2023-09-18T12:11:32;2.63;;;1.23;;
81396;SDS011;70852;49.908;8.126;2023-09-18T12:13:59;4.25;;;1.10;;
81396;SDS011;70852;49.908;8.126;2023-09-18T12:16:25;3.83;;;1.23;;
81396;SDS011;70852;49.908;8.126;2023-09-18T12:18:53;2.60;;;0.90;;
81396;SDS011;70852;49.908;8.126;2023-09-18T12:21:19;2.45;;;0.88;;
81396;SDS011;70852;49.908;8.126;2023-09-18T12:23:45;4.03;;;1.00;;
81396;SDS011;70852;49.908;8.126;2023-09-18T12:26:14;4.07;;;1.10;;
81396;SDS011;70852;49.908;8.126;2023-09-18T12:28:41;5.15;;;1.48;;
81396;SDS011;70852;49.908;8.126;2023-09-18T12:33:38;3.08;;;1.10;;
81396;SDS011;70852;49.908;8.126;2023-09-18T12:36:08;3.72;;;1.30;;
81396;SDS011;70852;49.908;8.126;2023-09-18T12:38:34;2.95;;;0.90;;
81396;SDS011;70852;49.908;8.126;2023-09-18T12:41:01;3.28;;;1.25;;
81396;SDS011;70852;49.908;8.126;2023-09-18T12:43:37;2.65;;;0.98;;
81396;SDS011;70852;49.908;8.126;2023-09-18T12:46:07;4.90;;;1.00;;
81396;SDS011;70852;49.908;8.126;2023-09-18T12:48:37;3.65;;;0.80;;
81396;SDS011;70852;49.908;8.126;2023-09-18T12:51:07;3.92;;;1.02;;
81396;SDS011;70852;49.908;8.126;2023-09-18T12:53:32;1.75;;;0.90;;
81396;SDS011;70852;49.908;8.126;2023-09-18T12:56:08;3.20;;;1.10;;
81396;SDS011;70852;49.908;8.126;2023-09-18T12:58:40;3.55;;;1.05;;
81396;SDS011;70852;49.908;8.126;2023-09-18T13:01:09;3.88;;;1.10;;
81396;SDS011;70852;49.908;8.126;2023-09-18T13:03:44;3.53;;;1.70;;
81396;SDS011;70852;49.908;8.126;2023-09-18T13:06:17;3.17;;;1.10;;
81396;SDS011;70852;49.908;8.126;2023-09-18T13:08:45;4.45;;;1.20;;
81396;SDS011;70852;49.908;8.126;2023-09-18T13:11:14;3.42;;;1.20;;
81396;SDS011;70852;49.908;8.126;2023-09-18T13:13:42;4.13;;;1.38;;
81396;SDS011;70852;49.908;8.126;2023-09-18T13:16:12;4.90;;;1.50;;
81396;SDS011;70852;49.908;8.126;2023-09-18T13:18:39;4.20;;;1.25;;
81396;SDS011;70852;49.908;8.126;2023-09-18T13:21:12;3.70;;;1.42;;
81396;SDS011;70852;49.908;8.126;2023-09-18T13:23:40;3.60;;;1.20;;
81396;SDS011;70852;49.908;8.126;2023-09-18T13:26:06;3.03;;;1.10;;
81396;SDS011;70852;49.908;8.126;2023-09-18T13:28:35;5.50;;;1.33;;
81396;SDS011;70852;49.908;8.126;2023-09-18T13:31:01;3.63;;;1.40;;
81396;SDS011;70852;49.908;8.126;2023-09-18T13:33:30;2.97;;;0.90;;
81396;SDS011;70852;49.908;8.126;2023-09-18T13:36:02;4.93;;;1.30;;
81396;SDS011;70852;49.908;8.126;2023-09-18T13:38:28;3.28;;;0.98;;
81396;SDS011;70852;49.908;8.126;2023-09-18T13:40:55;3.22;;;1.05;;
81396;SDS011;70852;49.908;8.126;2023-09-18T13:43:21;2.85;;;1.15;;
81396;SDS011;70852;49.908;8.126;2023-09-18T13:45:47;6.63;;;1.52;;
81396;SDS011;70852;49.908;8.126;2023-09-18T13:48:13;4.50;;;1.33;;
81396;SDS011;70852;49.908;8.126;2023-09-18T13:50:41;4.57;;;2.22;;
81396;SDS011;70852;49.908;8.126;2023-09-18T13:53:08;2.88;;;1.20;;
81396;SDS011;70852;49.908;8.126;2023-09-18T13:55:34;3.95;;;1.17;;
81396;SDS011;70852;49.908;8.126;2023-09-18T13:58:02;3.78;;;1.73;;
81396;SDS011;70852;49.908;8.126;2023-09-18T14:00:32;7.07;;;2.53;;
81396;SDS011;70852;49.908;8.126;2023-09-18T14:02:58;2.47;;;1.42;;
81396;SDS011;70852;49.908;8.126;2023-09-18T14:05:24;6.65;;;1.40;;
81396;SDS011;70852;49.908;8.126;2023-09-18T14:07:51;3.88;;;1.30;;
81396;SDS011;70852;49.908;8.126;2023-09-18T14:10:22;7.57;;;1.65;;
81396;SDS011;70852;49.908;8.126;2023-09-18T14:12:47;5.75;;;1.40;;
81396;SDS011;70852;49.908;8.126;2023-09-18T14:15:13;5.45;;;1.60;;
81396;SDS011;70852;49.908;8.126;2023-09-18T14:17:43;4.15;;;1.50;;
81396;SDS011;70852;49.908;8.126;2023-09-18T14:20:08;3.20;;;1.65;;
81396;SDS011;70852;49.908;8.126;2023-09-18T14:22:40;2.60;;;1.45;;
81396;SDS011;70852;49.908;8.126;2023-09-18T14:25:07;3.15;;;1.30;;
81396;SDS011;70852;49.908;8.126;2023-09-18T14:27:35;2.97;;;1.42;;
81396;SDS011;70852;49.908;8.126;2023-09-18T14:30:03;2.58;;;1.30;;
81396;SDS011;70852;49.908;8.126;2023-09-18T14:32:33;3.30;;;1.50;;
81396;SDS011;70852;49.908;8.126;2023-09-18T14:35:03;2.70;;;1.77;;
81396;SDS011;70852;49.908;8.126;2023-09-18T14:37:33;3.65;;;1.20;;
81396;SDS011;70852;49.908;8.126;2023-09-18T14:40:01;3.78;;;1.73;;
81396;SDS011;70852;49.908;8.126;2023-09-18T14:42:27;2.83;;;1.30;;
81396;SDS011;70852;49.908;8.126;2023-09-18T14:44:52;2.53;;;1.10;;
81396;SDS011;70852;49.908;8.126;2023-09-18T14:47:20;3.22;;;1.58;;
81396;SDS011;70852;49.908;8.126;2023-09-18T14:49:46;3.40;;;1.83;;
81396;SDS011;70852;49.908;8.126;2023-09-18T14:52:12;4.10;;;1.50;;
81396;SDS011;70852;49.908;8.126;2023-09-18T14:54:43;3.88;;;1.70;;
81396;SDS011;70852;49.908;8.126;2023-09-18T14:57:08;3.60;;;1.50;;
81396;SDS011;70852;49.908;8.126;2023-09-18T14:59:36;4.72;;;1.90;;
81396;SDS011;70852;49.908;8.126;2023-09-18T15:02:03;3.88;;;1.90;;
81396;SDS011;70852;49.908;8.126;2023-09-18T15:04:29;4.22;;;1.50;;
81396;SDS011;70852;49.908;8.126;2023-09-18T15:06:59;3.03;;;1.42;;
81396;SDS011;70852;49.908;8.126;2023-09-18T15:09:25;2.72;;;1.52;;
81396;SDS011;70852;49.908;8.126;2023-09-18T15:11:55;7.93;;;1.70;;
81396;SDS011;70852;49.908;8.126;2023-09-18T15:14:23;3.25;;;1.80;;
81396;SDS011;70852;49.908;8.126;2023-09-18T15:16:49;2.72;;;1.45;;
81396;SDS011;70852;49.908;8.126;2023-09-18T15:19:14;3.78;;;1.52;;
81396;SDS011;70852;49.908;8.126;2023-09-18T15:21:41;4.85;;;1.15;;
81396;SDS011;70852;49.908;8.126;2023-09-18T15:24:11;3.67;;;1.70;;
81396;SDS011;70852;49.908;8.126;2023-09-18T15:26:39;3.85;;;1.83;;
81396;SDS011;70852;49.908;8.126;2023-09-18T15:29:09;3.22;;;1.60;;
81396;SDS011;70852;49.908;8.126;2023-09-18T15:31:35;2.47;;;1.20;;
81396;SDS011;70852;49.908;8.126;2023-09-18T15:34:03;2.80;;;1.38;;
81396;SDS011;70852;49.908;8.126;2023-09-18T15:36:31;5.45;;;1.48;;